地図

経路データ

SID SEASON NUMBER BASIN SUBBASIN NAME ISO_TIME NATURE LAT LON WMO_WIND WMO_PRES WMO_AGENCY TRACK_TYPE DIST2LAND LANDFALL IFLAG USA_AGENCY USA_ATCF_ID USA_LAT USA_LON USA_RECORD USA_STATUS USA_WIND USA_PRES USA_SSHS USA_R34_NE USA_R34_SE USA_R34_SW USA_R34_NW USA_R50_NE USA_R50_SE USA_R50_SW USA_R50_NW USA_R64_NE USA_R64_SE USA_R64_SW USA_R64_NW USA_POCI USA_ROCI USA_RMW USA_EYE TOKYO_LAT TOKYO_LON TOKYO_GRADE TOKYO_WIND TOKYO_PRES TOKYO_R50_DIR TOKYO_R50_LONG TOKYO_R50_SHORT TOKYO_R30_DIR TOKYO_R30_LONG TOKYO_R30_SHORT TOKYO_LAND CMA_LAT CMA_LON CMA_CAT CMA_WIND CMA_PRES HKO_LAT HKO_LON HKO_CAT HKO_WIND HKO_PRES NEWDELHI_LAT NEWDELHI_LON NEWDELHI_GRADE NEWDELHI_WIND NEWDELHI_PRES NEWDELHI_CI NEWDELHI_DP NEWDELHI_POCI REUNION_LAT REUNION_LON REUNION_TYPE REUNION_WIND REUNION_PRES REUNION_TNUM REUNION_CI REUNION_RMW REUNION_R34_NE REUNION_R34_SE REUNION_R34_SW REUNION_R34_NW REUNION_R50_NE REUNION_R50_SE REUNION_R50_SW REUNION_R50_NW REUNION_R64_NE REUNION_R64_SE REUNION_R64_SW REUNION_R64_NW BOM_LAT BOM_LON BOM_TYPE BOM_WIND BOM_PRES BOM_TNUM BOM_CI BOM_RMW BOM_R34_NE BOM_R34_SE BOM_R34_SW BOM_R34_NW BOM_R50_NE BOM_R50_SE BOM_R50_SW BOM_R50_NW BOM_R64_NE BOM_R64_SE BOM_R64_SW BOM_R64_NW BOM_ROCI BOM_POCI BOM_EYE BOM_POS_METHOD BOM_PRES_METHOD NADI_LAT NADI_LON NADI_CAT NADI_WIND NADI_PRES WELLINGTON_LAT WELLINGTON_LON WELLINGTON_WIND WELLINGTON_PRES DS824_LAT DS824_LON DS824_STAGE DS824_WIND DS824_PRES TD9636_LAT TD9636_LON TD9636_STAGE TD9636_WIND TD9636_PRES TD9635_LAT TD9635_LON TD9635_WIND TD9635_PRES TD9635_ROCI NEUMANN_LAT NEUMANN_LON NEUMANN_CLASS NEUMANN_WIND NEUMANN_PRES MLC_LAT MLC_LON MLC_CLASS MLC_WIND MLC_PRES USA_GUST BOM_GUST BOM_GUST_PER REUNION_GUST REUNION_GUST_PER USA_SEAHGT USA_SEARAD_NE USA_SEARAD_SE USA_SEARAD_SW USA_SEARAD_NW STORM_SPEED STORM_DIR
1903301N13084 1903 58 NI BB NOT_NAMED 1903-10-28 00:00:00 TS 13.1000 84.0000 main 401 389 _________O____ -1 13.1000 84.0000 TC 34 5 331
1903301N13084 1903 58 NI BB NOT_NAMED 1903-10-28 03:00:00 TS 13.3350 83.8651 main 389 367 _________PO___ -1 13.4525 83.7976 TC 36 13.1000 84.0000 2 6 332
1903301N13084 1903 58 NI BB NOT_NAMED 1903-10-28 06:00:00 TS 13.6587 83.6869 main 357 317 _________OP___ -1 13.8000 83.6000 TC 39 13.4469 83.8174 2 8 332
1903301N13084 1903 58 NI BB NOT_NAMED 1903-10-28 09:00:00 TS 13.9935 83.5018 main 317 277 _________PP___ -1 14.1425 83.4074 TC 42 13.7949 83.6276 2 8 331
1903301N13084 1903 58 NI BB NOT_NAMED 1903-10-28 12:00:00 TS 14.3228 83.3120 main 277 228 _________OP___ -1 14.5000 83.2000 TC 45 14.1456 83.4240 2 8 330
1903301N13084 1903 58 NI BB NOT_NAMED 1903-10-28 15:00:00 TS 14.6963 83.0750 main 228 173 _________PO___ -1 14.8925 82.9500 TC 41 14.5000 83.2000 3 9 328
1903301N13084 1903 58 NI BB NOT_NAMED 1903-10-28 18:00:00 TS 15.0807 82.8270 main 173 134 _________OP___ -1 15.3000 82.7000 TC 37 14.8614 82.9539 3 9 329
1903301N13084 1903 58 NI BB NOT_NAMED 1903-10-28 21:00:00 TS 15.4589 82.5951 main 124 84 _________PP___ -1 15.6775 82.4849 TC 33 15.2402 82.7053 3 9 332
1903301N13084 1903 58 NI BB NOT_NAMED 1903-10-29 00:00:00 TS 15.8745 82.3895 main 74 24 _________OP___ -1 16.1000 82.3000 TC 30 15.6489 82.4790 3 10 338
1903301N13084 1903 58 NI BB NOT_NAMED 1903-10-29 03:00:00 TS 16.3638 82.2063 main 15 0 _________PO___ -1 16.6275 82.1127 TC 30 16.1000 82.3000 1 11 344
1903301N13084 1903 58 NI BB NOT_NAMED 1903-10-29 06:00:00 TS 16.9074 82.0817 main 0 0 _________OP___ -1 17.2000 82.0000 TC 30 16.6148 82.1634 1 11 352
1903301N13084 1903 58 NI BB NOT_NAMED 1903-10-29 09:00:00 TS 17.4599 82.0464 main 0 0 _________PP___ -1 17.7500 82.0123 TC 30 17.1698 82.0805 1 11 359
1903301N13084 1903 58 NI BB NOT_NAMED 1903-10-29 12:00:00 TS 18.0199 82.0787 main 0 0 _________OP___ -1 18.3000 82.1000 TC 30 17.7398 82.0574 1 11 4
1903301N13084 1903 58 NI BB NOT_NAMED 1903-10-29 15:00:00 TS 18.5825 82.1351 main 0 0 _________PO___ -1 18.8649 82.1702 TC 30 18.3000 82.1000 1 11 8
1903301N13084 1903 58 NI BB NOT_NAMED 1903-10-29 18:00:00 TS 19.1274 82.2407 main 0 0 _________OP___ -1 19.4000 82.3000 TC 30 18.8548 82.1814 1 11 14
1903301N13084 1903 58 NI BB NOT_NAMED 1903-10-29 21:00:00 TS 19.6386 82.4247 main 0 0 _________PP___ -1 19.8875 82.5199 TC 30 19.3896 82.3294 1 10 23
1903301N13084 1903 58 NI BB NOT_NAMED 1903-10-30 00:00:00 TS 20.0898 82.6689 main 0 0 _________OP___ -1 20.3000 82.8000 TC 30 19.8797 82.5378 1 10 30
1903301N13084 1903 58 NI BB NOT_NAMED 1903-10-30 03:00:00 TS 20.4687 82.9388 main 0 0 _________PO___ -1 20.6374 83.0777 TC 30 20.3000 82.8000 1 9 38
1903301N13084 1903 58 NI BB NOT_NAMED 1903-10-30 06:00:00 TS 20.7730 83.2398 main 0 0 _________OP___ -1 20.9000 83.4000 TC 30 20.6461 83.0795 1 8 48
1903301N13084 1903 58 NI BB NOT_NAMED 1903-10-30 09:00:00 TS 21.0210 83.5939 main 0 0 _________PP___ -1 21.1224 83.7776 TC 30 20.9196 83.4101 1 8 58
1903301N13084 1903 58 NI BB NOT_NAMED 1903-10-30 12:00:00 TS 21.2167 83.9929 main 0 0 _________OP___ -1 21.3000 84.2000 TC 30 21.1334 83.7857 1 9 65
1903301N13084 1903 58 NI BB NOT_NAMED 1903-10-30 15:00:00 TS 21.3862 84.4175 main 0 0 _________PO___ -1 21.4724 84.6350 TC 30 21.3000 84.2000 1 8 70
1903301N13084 1903 58 NI BB NOT_NAMED 1903-10-30 18:00:00 TS 21.5036 84.8408 main 0 0 _________OP___ -1 21.6000 85.1000 TC 30 21.4313 84.6464 1 9 76
1903301N13084 1903 58 NI BB NOT_NAMED 1903-10-30 21:00:00 TS 21.5889 85.3074 main 0 0 _________PP___ -1 21.6678 85.5925 TC 30 21.5363 85.1172 1 9 80
1903301N13084 1903 58 NI BB NOT_NAMED 1903-10-31 00:00:00 TS 21.6487 85.7696 main 0 0 _________OP___ -1 21.7000 86.1000 TC 30 21.6231 85.6044 1 7 81
1903301N13084 1903 58 NI BB NOT_NAMED 1903-10-31 03:00:00 NR 21.7000 86.1000 main 0 __________O___ -1 TC 21.7000 86.1000 1 6 81

IBTrACS Databaseについて

本データベースは、米国NOAAが公開する1842年以降の世界の熱帯低気圧のベストトラックデータアーカイブInternational Best Track Archive for Climate Stewardship (IBTrACS)を、ウェブで閲覧しやすい形式に変換したものです。

最終更新日:2021-10-25